首页
METAR-TAF:

METAR-TAF

机场 :

沙希德·哈希米内贾德国际机场

馬什哈德, 伊朗

纬度: 36-16N, 经度: 059-38E, 海拔: 989米

当前天气观测

该预报发布于39分钟前的04:00 UTC
静风
温度 30°C
湿度 22%
气压 1015 hPa
能见度10公里或以上
1500米以下无云,无积雨云

METAR: OIMM 050400Z 00000KT CAVOK 30/06 Q1015 A2998

时间: 09:09 (04:39 UTC)

预报

该预报发布于5小时和39分钟前的23:00 UTC
预报有效从05日的 00点(UTC)到 06日的 06点(UTC)
风速8节,风向东南
能見度: 7000
短暂存在
从 05日的 09点(UTC)到 05日的 18点(UTC)
风速18节,风向东北

TAF: OIMM 042300Z 0500/0606 14008KT 7000 NSC TEMPO 0509/0518 04018KT

超过4000个机场的气象观测和天气预报(METAR&TAF报告)。

可查询的气象台以黄色和红色小点在地图上表示。

将鼠标移到小点上方,可查看气象台名称。

然后点击查看天气观测和预报。

如需切换地图:点击带黑十字的绿色按钮放大地图;点击带横线的绿色按钮缩小地图;或者点击绿色箭头查看邻近地区的地图。


METAR-TAF: